TRA25E EHEH-LEAL
Flight info
| Callsign | TRA25E |
|---|---|
| Flight time | 2h 19m |
| Altitude | 37000 |
| Route | WOODY N872 MEDIL DCT KOVIN DCT DUCRA UM728 RESMI UN857 DISAK DCT DIRMO DCT GUERE DCT EVPOK DCT AGN DCT ANETO DCT POSSY DCT XIMPE DCT RIMES N860 VLC |
| Aircraft | A320/M-SDE3FGHIRWY/LB1 |
Departure
| Time | 2026-04-29 17:55 |
|---|---|
| Airport | Eindhoven Airport (EHEH) |
Arrival
| Time | 2026-04-29 20:15 |
|---|---|
| Airport | Alicante-Elche Miguel Hernández Airport (LEAL) |
| Time | Latitude | Longitude | Altitude | Speed | Heading |
|---|---|---|---|---|---|
| 2026-04-29 17:37 | 51.45787 | 5.38977 | 75 ft | 0 kts | 125° |
| 2026-04-29 17:43 | 51.45794 | 5.38961 | 75 ft | 4 kts | 127° |
| 2026-04-29 17:43 | 51.45812 | 5.38928 | 71 ft | 4 kts | 137° |
| 2026-04-29 17:44 | 51.45833 | 5.38903 | 66 ft | 4 kts | 162° |
| 2026-04-29 17:44 | 51.45853 | 5.38902 | 67 ft | 1 kts | 215° |
| 2026-04-29 17:44 | 51.45857 | 5.38907 | 69 ft | 0 kts | 215° |
| 2026-04-29 17:47 | 51.45843 | 5.38890 | 72 ft | 6 kts | 215° |
| 2026-04-29 17:47 | 51.45804 | 5.38846 | 69 ft | 8 kts | 217° |
| 2026-04-29 17:47 | 51.45803 | 5.38758 | 72 ft | 10 kts | 303° |
| 2026-04-29 17:48 | 51.45845 | 5.38660 | 72 ft | 12 kts | 304° |
| 2026-04-29 17:48 | 51.45893 | 5.38550 | 69 ft | 12 kts | 305° |
| 2026-04-29 17:48 | 51.45943 | 5.38438 | 77 ft | 13 kts | 306° |
| 2026-04-29 17:48 | 51.45995 | 5.38317 | 67 ft | 10 kts | 292° |
| 2026-04-29 17:49 | 51.45954 | 5.38226 | 71 ft | 12 kts | 216° |
| 2026-04-29 17:49 | 51.45880 | 5.38142 | 72 ft | 14 kts | 214° |
| 2026-04-29 17:49 | 51.45793 | 5.38045 | 68 ft | 16 kts | 215° |
| 2026-04-29 17:49 | 51.45696 | 5.37935 | 74 ft | 18 kts | 215° |
| 2026-04-29 17:50 | 51.45590 | 5.37817 | 69 ft | 13 kts | 214° |
| 2026-04-29 17:50 | 51.45516 | 5.37735 | 69 ft | 14 kts | 215° |
| 2026-04-29 17:50 | 51.45431 | 5.37638 | 69 ft | 16 kts | 216° |
| 2026-04-29 17:50 | 51.45334 | 5.37529 | 67 ft | 18 kts | 214° |
| 2026-04-29 17:51 | 51.45224 | 5.37407 | 72 ft | 20 kts | 215° |
| 2026-04-29 17:51 | 51.45106 | 5.37273 | 75 ft | 22 kts | 215° |
| 2026-04-29 17:51 | 51.44977 | 5.37131 | 69 ft | 24 kts | 214° |
| 2026-04-29 17:51 | 51.44837 | 5.36975 | 71 ft | 25 kts | 215° |
| 2026-04-29 17:52 | 51.44687 | 5.36806 | 70 ft | 27 kts | 215° |
| 2026-04-29 17:52 | 51.44581 | 5.36688 | 68 ft | 26 kts | 214° |
| 2026-04-29 17:52 | 51.44377 | 5.36458 | 74 ft | 28 kts | 215° |
| 2026-04-29 17:52 | 51.44210 | 5.36275 | 72 ft | 30 kts | 214° |
| 2026-04-29 17:53 | 51.44058 | 5.36103 | 70 ft | 15 kts | 214° |
| 2026-04-29 17:53 | 51.43984 | 5.36079 | 67 ft | 3 kts | 140° |
| 2026-04-29 17:53 | 51.43973 | 5.36106 | 74 ft | 1 kts | 123° |
| 2026-04-29 17:53 | 51.43956 | 5.36146 | 69 ft | 7 kts | 124° |
| 2026-04-29 17:54 | 51.43941 | 5.36232 | 67 ft | 10 kts | 77° |
| 2026-04-29 17:54 | 51.44013 | 5.36335 | 75 ft | 25 kts | 37° |
| 2026-04-29 17:54 | 51.44359 | 5.36719 | 70 ft | 92 kts | 35° |
| 2026-04-29 17:54 | 51.45032 | 5.37472 | 70 ft | 142 kts | 34° |
| 2026-04-29 17:55 | 51.45896 | 5.38428 | 508 ft | 150 kts | 40° |
| 2026-04-29 17:55 | 51.46463 | 5.39065 | 920 ft | 151 kts | 40° |
| 2026-04-29 17:55 | 51.47639 | 5.40391 | 1588 ft | 164 kts | 40° |
| 2026-04-29 17:55 | 51.48620 | 5.41507 | 1859 ft | 187 kts | 40° |
| 2026-04-29 17:56 | 51.49737 | 5.42772 | 2243 ft | 205 kts | 40° |
| 2026-04-29 17:56 | 51.50958 | 5.44035 | 2943 ft | 214 kts | 27° |
| 2026-04-29 17:56 | 51.52474 | 5.44169 | 3713 ft | 232 kts | 347° |
| 2026-04-29 17:56 | 51.53815 | 5.42611 | 4467 ft | 251 kts | 307° |
| 2026-04-29 17:57 | 51.54355 | 5.39931 | 5171 ft | 259 kts | 266° |
| 2026-04-29 17:57 | 51.53995 | 5.37114 | 5949 ft | 258 kts | 247° |
| 2026-04-29 17:57 | 51.53313 | 5.34387 | 6774 ft | 261 kts | 244° |
| 2026-04-29 17:57 | 51.52840 | 5.32599 | 7251 ft | 265 kts | 245° |
| 2026-04-29 17:58 | 51.51947 | 5.28860 | 8268 ft | 270 kts | 249° |
| 2026-04-29 17:58 | 51.51372 | 5.26008 | 9045 ft | 274 kts | 252° |
| 2026-04-29 17:58 | 51.50849 | 5.23046 | 9835 ft | 277 kts | 255° |
| 2026-04-29 17:58 | 51.50486 | 5.19996 | 10580 ft | 280 kts | 269° |
| 2026-04-29 17:59 | 51.50656 | 5.16798 | 11039 ft | 294 kts | 286° |
| 2026-04-29 17:59 | 51.51230 | 5.13516 | 11280 ft | 317 kts | 288° |
| 2026-04-29 17:59 | 51.51641 | 5.11200 | 11405 ft | 333 kts | 288° |
| 2026-04-29 17:59 | 51.52117 | 5.07440 | 11638 ft | 355 kts | 273° |
| 2026-04-29 18:00 | 51.51797 | 5.03462 | 12214 ft | 364 kts | 256° |
| 2026-04-29 18:00 | 51.51160 | 4.99498 | 12868 ft | 369 kts | 256° |
| 2026-04-29 18:00 | 51.50501 | 4.95499 | 13596 ft | 372 kts | 256° |
| 2026-04-29 18:00 | 51.49830 | 4.91469 | 14293 ft | 375 kts | 256° |
| 2026-04-29 18:01 | 51.49144 | 4.87364 | 14905 ft | 378 kts | 256° |
| 2026-04-29 18:01 | 51.48466 | 4.83318 | 15478 ft | 383 kts | 256° |
| 2026-04-29 18:01 | 51.47763 | 4.79128 | 16083 ft | 386 kts | 256° |
| 2026-04-29 18:01 | 51.47053 | 4.74897 | 16726 ft | 387 kts | 256° |
| 2026-04-29 18:02 | 51.46360 | 4.70772 | 17346 ft | 390 kts | 256° |
| 2026-04-29 18:02 | 51.45649 | 4.66550 | 17934 ft | 394 kts | 256° |
| 2026-04-29 18:02 | 51.44932 | 4.62298 | 18538 ft | 397 kts | 256° |
| 2026-04-29 18:02 | 51.44206 | 4.58008 | 19099 ft | 399 kts | 256° |
| 2026-04-29 18:03 | 51.43472 | 4.53696 | 19649 ft | 403 kts | 256° |
| 2026-04-29 18:03 | 51.42731 | 4.49346 | 20167 ft | 407 kts | 256° |
| 2026-04-29 18:03 | 51.41917 | 4.44973 | 20714 ft | 411 kts | 249° |
| 2026-04-29 18:03 | 51.40672 | 4.40898 | 21238 ft | 414 kts | 237° |
| 2026-04-29 18:04 | 51.38923 | 4.37227 | 21758 ft | 416 kts | 225° |
| 2026-04-29 18:04 | 51.36744 | 4.34159 | 22264 ft | 418 kts | 213° |
| 2026-04-29 18:04 | 51.34238 | 4.31825 | 22785 ft | 417 kts | 202° |
| 2026-04-29 18:04 | 51.31607 | 4.29836 | 23314 ft | 420 kts | 202° |
| 2026-04-29 18:05 | 51.28953 | 4.27831 | 23832 ft | 423 kts | 202° |
| 2026-04-29 18:05 | 51.26288 | 4.25815 | 24273 ft | 426 kts | 202° |
| 2026-04-29 18:05 | 51.23601 | 4.23781 | 24695 ft | 428 kts | 202° |
| 2026-04-29 18:05 | 51.20935 | 4.21764 | 25105 ft | 430 kts | 202° |
| 2026-04-29 18:06 | 51.18226 | 4.19712 | 25518 ft | 433 kts | 202° |
| 2026-04-29 18:06 | 51.15423 | 4.17794 | 25934 ft | 433 kts | 196° |
| 2026-04-29 18:06 | 51.12607 | 4.16234 | 26321 ft | 435 kts | 196° |
| 2026-04-29 18:06 | 51.09753 | 4.14668 | 26714 ft | 437 kts | 195° |
| 2026-04-29 18:07 | 51.06902 | 4.13114 | 27087 ft | 439 kts | 195° |
| 2026-04-29 18:07 | 51.04006 | 4.11537 | 27460 ft | 442 kts | 195° |
| 2026-04-29 18:07 | 51.01090 | 4.09949 | 27834 ft | 444 kts | 195° |
| 2026-04-29 18:07 | 50.98226 | 4.08386 | 28209 ft | 446 kts | 195° |
| 2026-04-29 18:08 | 50.95378 | 4.06829 | 28573 ft | 448 kts | 195° |
| 2026-04-29 18:08 | 50.92423 | 4.05220 | 28944 ft | 450 kts | 195° |
| 2026-04-29 18:08 | 50.89452 | 4.03608 | 29296 ft | 452 kts | 195° |
| 2026-04-29 18:08 | 50.86477 | 4.01957 | 29657 ft | 455 kts | 196° |
| 2026-04-29 18:09 | 50.83506 | 4.00162 | 30008 ft | 458 kts | 198° |
| 2026-04-29 18:09 | 50.80545 | 3.98253 | 30361 ft | 461 kts | 199° |
| 2026-04-29 18:09 | 50.77580 | 3.96279 | 30660 ft | 463 kts | 199° |
| 2026-04-29 18:09 | 50.74607 | 3.94287 | 30969 ft | 464 kts | 199° |
| 2026-04-29 18:10 | 50.71630 | 3.92318 | 31391 ft | 463 kts | 199° |
| 2026-04-29 18:10 | 50.68652 | 3.90387 | 31814 ft | 462 kts | 199° |
| 2026-04-29 18:10 | 50.65677 | 3.88495 | 32230 ft | 461 kts | 198° |
| 2026-04-29 18:10 | 50.62702 | 3.86623 | 32629 ft | 460 kts | 198° |
| 2026-04-29 18:11 | 50.59731 | 3.84760 | 33050 ft | 460 kts | 198° |
| 2026-04-29 18:11 | 50.56760 | 3.82888 | 33462 ft | 459 kts | 199° |
| 2026-04-29 18:11 | 50.53813 | 3.80958 | 33876 ft | 459 kts | 200° |
| 2026-04-29 18:11 | 50.50886 | 3.78965 | 34291 ft | 458 kts | 201° |
| 2026-04-29 18:12 | 50.47974 | 3.76941 | 34642 ft | 458 kts | 201° |
| 2026-04-29 18:12 | 50.45059 | 3.74908 | 34941 ft | 458 kts | 201° |
| 2026-04-29 18:12 | 50.42147 | 3.72889 | 35252 ft | 457 kts | 201° |
| 2026-04-29 18:12 | 50.39230 | 3.70885 | 35577 ft | 457 kts | 201° |
| 2026-04-29 18:13 | 50.36315 | 3.68901 | 35838 ft | 457 kts | 201° |
| 2026-04-29 18:13 | 50.33398 | 3.66931 | 36168 ft | 456 kts | 201° |
| 2026-04-29 18:13 | 50.30491 | 3.64971 | 36520 ft | 455 kts | 202° |
| 2026-04-29 18:13 | 50.27574 | 3.63005 | 36754 ft | 456 kts | 201° |
| 2026-04-29 18:14 | 50.24661 | 3.61044 | 36995 ft | 456 kts | 202° |
| 2026-04-29 18:14 | 50.21746 | 3.59084 | 37172 ft | 457 kts | 202° |
| 2026-04-29 18:14 | 50.18816 | 3.57116 | 37196 ft | 461 kts | 202° |
| 2026-04-29 18:15 | 50.12916 | 3.53158 | 37187 ft | 460 kts | 203° |
| 2026-04-29 18:15 | 50.07100 | 3.49256 | 37177 ft | 457 kts | 203° |
| 2026-04-29 18:16 | 50.01270 | 3.45359 | 37173 ft | 457 kts | 203° |
| 2026-04-29 18:16 | 49.95430 | 3.41466 | 37166 ft | 456 kts | 203° |
| 2026-04-29 18:17 | 49.89591 | 3.37597 | 37155 ft | 457 kts | 204° |
| 2026-04-29 18:17 | 49.83741 | 3.33722 | 37162 ft | 458 kts | 204° |
| 2026-04-29 18:18 | 49.77876 | 3.29841 | 37156 ft | 458 kts | 204° |
| 2026-04-29 18:18 | 49.72004 | 3.25979 | 37155 ft | 459 kts | 204° |
| 2026-04-29 18:19 | 49.66079 | 3.22097 | 37158 ft | 459 kts | 205° |
| 2026-04-29 18:19 | 49.60196 | 3.18229 | 37153 ft | 459 kts | 204° |
| 2026-04-29 18:20 | 49.54304 | 3.14378 | 37147 ft | 460 kts | 204° |
| 2026-04-29 18:20 | 49.48461 | 3.10390 | 37148 ft | 457 kts | 212° |
| 2026-04-29 18:21 | 49.43158 | 3.05103 | 37156 ft | 453 kts | 216° |
| 2026-04-29 18:21 | 49.37900 | 2.99763 | 37152 ft | 452 kts | 216° |
| 2026-04-29 18:22 | 49.32653 | 2.94461 | 37151 ft | 451 kts | 216° |
| 2026-04-29 18:22 | 49.27414 | 2.89186 | 37145 ft | 450 kts | 216° |
| 2026-04-29 18:23 | 49.22152 | 2.83878 | 37141 ft | 449 kts | 216° |
| 2026-04-29 18:23 | 49.17052 | 2.78758 | 37126 ft | 448 kts | 217° |
| 2026-04-29 18:24 | 49.11841 | 2.73538 | 37117 ft | 447 kts | 216° |
| 2026-04-29 18:24 | 49.06645 | 2.68327 | 37106 ft | 446 kts | 216° |
| 2026-04-29 18:25 | 49.01445 | 2.63134 | 37110 ft | 445 kts | 216° |
| 2026-04-29 18:25 | 48.96303 | 2.58032 | 37080 ft | 437 kts | 216° |
| 2026-04-29 18:26 | 48.91230 | 2.53004 | 37083 ft | 434 kts | 216° |
| 2026-04-29 18:26 | 48.86167 | 2.47983 | 37085 ft | 434 kts | 216° |
| 2026-04-29 18:27 | 48.81069 | 2.42948 | 37084 ft | 434 kts | 216° |
| 2026-04-29 18:27 | 48.78436 | 2.40672 | 37086 ft | 437 kts | 204° |
| 2026-04-29 18:27 | 48.75465 | 2.39457 | 37084 ft | 442 kts | 189° |
| 2026-04-29 18:28 | 48.69354 | 2.38624 | 37081 ft | 444 kts | 188° |
| 2026-04-29 18:28 | 48.63150 | 2.37884 | 37081 ft | 445 kts | 187° |
| 2026-04-29 18:29 | 48.56982 | 2.37139 | 37101 ft | 444 kts | 188° |
| 2026-04-29 18:29 | 48.50834 | 2.36373 | 37090 ft | 443 kts | 188° |
| 2026-04-29 18:30 | 48.44689 | 2.35604 | 37085 ft | 442 kts | 188° |
| 2026-04-29 18:30 | 48.38559 | 2.34843 | 37084 ft | 441 kts | 188° |
| 2026-04-29 18:31 | 48.33486 | 2.34223 | 37082 ft | 439 kts | 188° |
| 2026-04-29 18:31 | 48.27407 | 2.33476 | 37075 ft | 437 kts | 188° |
| 2026-04-29 18:32 | 48.21348 | 2.32728 | 37071 ft | 436 kts | 188° |
| 2026-04-29 18:32 | 48.12293 | 2.31613 | 37065 ft | 434 kts | 188° |
| 2026-04-29 18:33 | 48.06274 | 2.30889 | 37061 ft | 433 kts | 188° |
| 2026-04-29 18:33 | 48.00268 | 2.30169 | 37056 ft | 433 kts | 188° |
| 2026-04-29 18:34 | 47.95245 | 2.29554 | 37056 ft | 432 kts | 188° |
| 2026-04-29 18:34 | 47.88260 | 2.28690 | 37056 ft | 431 kts | 188° |
| 2026-04-29 18:35 | 47.82286 | 2.27965 | 37054 ft | 430 kts | 188° |
| 2026-04-29 18:35 | 47.76323 | 2.27259 | 37026 ft | 429 kts | 188° |
| 2026-04-29 18:36 | 47.70373 | 2.26551 | 37036 ft | 428 kts | 188° |
| 2026-04-29 18:36 | 47.64434 | 2.25832 | 37035 ft | 428 kts | 188° |
| 2026-04-29 18:37 | 47.58511 | 2.25110 | 37029 ft | 427 kts | 188° |
| 2026-04-29 18:37 | 47.52598 | 2.24401 | 37024 ft | 426 kts | 188° |
| 2026-04-29 18:38 | 47.46683 | 2.23698 | 37023 ft | 426 kts | 188° |
| 2026-04-29 18:38 | 47.40775 | 2.22999 | 37015 ft | 425 kts | 188° |
| 2026-04-29 18:39 | 47.34877 | 2.22290 | 37001 ft | 425 kts | 188° |
| 2026-04-29 18:39 | 47.28978 | 2.21586 | 37009 ft | 425 kts | 187° |
| 2026-04-29 18:40 | 47.23086 | 2.20895 | 37007 ft | 424 kts | 187° |
| 2026-04-29 18:40 | 47.17196 | 2.20198 | 37000 ft | 424 kts | 187° |
| 2026-04-29 18:41 | 47.05432 | 2.18816 | 37003 ft | 424 kts | 187° |
| 2026-04-29 18:42 | 46.99556 | 2.18137 | 37001 ft | 423 kts | 187° |
| 2026-04-29 18:42 | 46.93673 | 2.17457 | 36992 ft | 423 kts | 187° |
| 2026-04-29 18:43 | 46.89964 | 2.17028 | 36991 ft | 423 kts | 187° |
| 2026-04-29 18:44 | 46.86727 | 2.16653 | 36991 ft | 423 kts | 187° |
| 2026-04-29 18:44 | 46.80859 | 2.15980 | 36989 ft | 422 kts | 187° |
| 2026-04-29 18:45 | 46.74996 | 2.15305 | 36988 ft | 422 kts | 187° |
| 2026-04-29 18:45 | 46.69155 | 2.14470 | 36977 ft | 419 kts | 197° |
| 2026-04-29 18:46 | 46.63790 | 2.11339 | 36979 ft | 415 kts | 206° |
| 2026-04-29 18:46 | 46.58503 | 2.07917 | 36965 ft | 416 kts | 206° |
| 2026-04-29 18:47 | 46.53218 | 2.04484 | 36963 ft | 416 kts | 206° |
| 2026-04-29 18:47 | 46.47937 | 2.01070 | 36976 ft | 416 kts | 205° |
| 2026-04-29 18:48 | 46.42652 | 1.97676 | 36975 ft | 415 kts | 205° |
| 2026-04-29 18:48 | 46.37381 | 1.94294 | 36970 ft | 414 kts | 205° |
| 2026-04-29 18:49 | 46.32115 | 1.90921 | 36963 ft | 413 kts | 205° |
| 2026-04-29 18:49 | 46.26859 | 1.87560 | 36960 ft | 413 kts | 205° |
| 2026-04-29 18:50 | 46.21603 | 1.84207 | 36959 ft | 412 kts | 205° |
| 2026-04-29 18:50 | 46.16388 | 1.80887 | 36960 ft | 412 kts | 205° |
| 2026-04-29 18:51 | 46.11061 | 1.77502 | 36955 ft | 412 kts | 205° |
| 2026-04-29 18:51 | 46.05810 | 1.74182 | 36955 ft | 412 kts | 205° |
| 2026-04-29 18:52 | 46.00560 | 1.70862 | 36957 ft | 412 kts | 205° |
| 2026-04-29 18:52 | 45.95309 | 1.67544 | 36952 ft | 412 kts | 205° |
| 2026-04-29 18:53 | 45.90054 | 1.64236 | 36960 ft | 412 kts | 205° |
| 2026-04-29 18:53 | 45.84797 | 1.60930 | 36960 ft | 412 kts | 205° |
| 2026-04-29 18:54 | 45.79539 | 1.57634 | 36964 ft | 413 kts | 205° |
| 2026-04-29 18:54 | 45.74312 | 1.54367 | 36973 ft | 412 kts | 204° |
| 2026-04-29 18:55 | 45.69019 | 1.51061 | 36979 ft | 412 kts | 204° |
| 2026-04-29 18:55 | 45.63761 | 1.47783 | 36981 ft | 412 kts | 204° |
| 2026-04-29 18:56 | 45.58506 | 1.44512 | 36979 ft | 412 kts | 204° |
| 2026-04-29 18:56 | 45.53257 | 1.41249 | 36977 ft | 411 kts | 204° |
| 2026-04-29 18:57 | 45.47998 | 1.38033 | 36967 ft | 411 kts | 200° |
| 2026-04-29 18:57 | 45.42443 | 1.36015 | 36967 ft | 412 kts | 194° |
| 2026-04-29 18:58 | 45.36845 | 1.34199 | 36965 ft | 412 kts | 194° |
| 2026-04-29 18:58 | 45.31250 | 1.32371 | 36966 ft | 412 kts | 194° |
| 2026-04-29 18:59 | 45.25656 | 1.30549 | 36966 ft | 412 kts | 194° |
| 2026-04-29 18:59 | 45.20095 | 1.28750 | 36968 ft | 412 kts | 194° |
| 2026-04-29 19:00 | 45.14507 | 1.26945 | 36963 ft | 412 kts | 194° |
| 2026-04-29 19:00 | 45.08906 | 1.25140 | 36963 ft | 412 kts | 194° |
| 2026-04-29 19:01 | 45.03324 | 1.23356 | 36962 ft | 412 kts | 194° |
| 2026-04-29 19:01 | 44.97735 | 1.21563 | 36948 ft | 412 kts | 194° |
| 2026-04-29 19:02 | 44.93094 | 1.20071 | 36948 ft | 411 kts | 194° |
| 2026-04-29 19:02 | 44.86564 | 1.17974 | 36950 ft | 411 kts | 194° |
| 2026-04-29 19:03 | 44.80974 | 1.16196 | 36950 ft | 411 kts | 194° |
| 2026-04-29 19:03 | 44.75388 | 1.14425 | 36957 ft | 411 kts | 194° |
| 2026-04-29 19:04 | 44.70751 | 1.12948 | 36954 ft | 411 kts | 194° |
| 2026-04-29 19:04 | 44.64251 | 1.10883 | 36952 ft | 411 kts | 193° |
| 2026-04-29 19:05 | 44.58668 | 1.09117 | 36950 ft | 411 kts | 193° |
| 2026-04-29 19:05 | 44.53990 | 1.07638 | 36948 ft | 411 kts | 193° |
| 2026-04-29 19:06 | 44.48444 | 1.05888 | 36944 ft | 411 kts | 193° |
| 2026-04-29 19:07 | 44.40067 | 1.03253 | 36943 ft | 411 kts | 193° |
| 2026-04-29 19:07 | 44.34485 | 1.01501 | 36942 ft | 411 kts | 193° |
| 2026-04-29 19:08 | 44.28900 | 0.99755 | 36938 ft | 411 kts | 193° |
| 2026-04-29 19:08 | 44.23312 | 0.98012 | 36936 ft | 411 kts | 193° |
| 2026-04-29 19:09 | 44.17730 | 0.96268 | 36930 ft | 411 kts | 193° |
| 2026-04-29 19:09 | 44.12144 | 0.94534 | 36928 ft | 411 kts | 193° |
| 2026-04-29 19:10 | 44.06561 | 0.92794 | 36927 ft | 411 kts | 193° |
| 2026-04-29 19:10 | 44.00978 | 0.91053 | 36926 ft | 411 kts | 193° |
| 2026-04-29 19:11 | 43.95386 | 0.89323 | 36924 ft | 412 kts | 193° |
| 2026-04-29 19:11 | 43.89794 | 0.87598 | 36932 ft | 412 kts | 193° |
| 2026-04-29 19:12 | 43.84182 | 0.85966 | 36934 ft | 412 kts | 192° |
| 2026-04-29 19:12 | 43.78543 | 0.84489 | 36927 ft | 412 kts | 191° |
| 2026-04-29 19:13 | 43.72891 | 0.83027 | 36928 ft | 413 kts | 191° |
| 2026-04-29 19:13 | 43.67245 | 0.81535 | 36931 ft | 413 kts | 192° |
| 2026-04-29 19:14 | 43.61600 | 0.80030 | 36924 ft | 413 kts | 192° |
| 2026-04-29 19:14 | 43.55946 | 0.78522 | 36917 ft | 414 kts | 191° |
| 2026-04-29 19:15 | 43.50277 | 0.77015 | 36913 ft | 414 kts | 191° |
| 2026-04-29 19:15 | 43.44612 | 0.75511 | 36932 ft | 415 kts | 191° |
| 2026-04-29 19:16 | 43.38936 | 0.74011 | 36924 ft | 415 kts | 192° |
| 2026-04-29 19:16 | 43.33256 | 0.72520 | 36920 ft | 416 kts | 192° |
| 2026-04-29 19:17 | 43.27576 | 0.71017 | 36922 ft | 416 kts | 192° |
| 2026-04-29 19:17 | 43.21890 | 0.69531 | 36931 ft | 416 kts | 192° |
| 2026-04-29 19:18 | 43.16202 | 0.68050 | 36940 ft | 416 kts | 192° |
| 2026-04-29 19:18 | 43.10525 | 0.66566 | 36940 ft | 415 kts | 192° |
| 2026-04-29 19:19 | 43.04852 | 0.65080 | 36947 ft | 415 kts | 192° |
| 2026-04-29 19:19 | 42.99183 | 0.63599 | 36959 ft | 414 kts | 192° |
| 2026-04-29 19:20 | 42.93523 | 0.62125 | 36952 ft | 413 kts | 192° |
| 2026-04-29 19:20 | 42.87870 | 0.60652 | 36966 ft | 413 kts | 192° |
| 2026-04-29 19:21 | 42.82212 | 0.59173 | 36984 ft | 413 kts | 192° |
| 2026-04-29 19:21 | 42.76562 | 0.57720 | 36997 ft | 412 kts | 191° |
| 2026-04-29 19:22 | 42.70913 | 0.56257 | 36997 ft | 413 kts | 194° |
| 2026-04-29 19:22 | 42.65564 | 0.53455 | 37016 ft | 413 kts | 205° |
| 2026-04-29 19:23 | 42.60374 | 0.50110 | 37013 ft | 414 kts | 205° |
| 2026-04-29 19:23 | 42.55160 | 0.46779 | 37011 ft | 415 kts | 205° |
| 2026-04-29 19:24 | 42.49926 | 0.43444 | 37015 ft | 415 kts | 205° |
| 2026-04-29 19:24 | 42.44695 | 0.40111 | 37015 ft | 416 kts | 205° |
| 2026-04-29 19:25 | 42.39459 | 0.36777 | 37012 ft | 415 kts | 206° |
| 2026-04-29 19:25 | 42.34230 | 0.33455 | 37002 ft | 416 kts | 206° |
| 2026-04-29 19:26 | 42.28989 | 0.30144 | 36993 ft | 416 kts | 206° |
| 2026-04-29 19:26 | 42.23749 | 0.26832 | 36984 ft | 416 kts | 206° |
| 2026-04-29 19:27 | 42.18502 | 0.23520 | 36972 ft | 416 kts | 206° |
| 2026-04-29 19:27 | 42.13256 | 0.20216 | 36975 ft | 416 kts | 206° |
| 2026-04-29 19:28 | 42.08006 | 0.16929 | 36966 ft | 416 kts | 203° |
| 2026-04-29 19:28 | 42.02365 | 0.15146 | 36950 ft | 419 kts | 188° |
| 2026-04-29 19:29 | 41.96556 | 0.14285 | 36943 ft | 420 kts | 189° |
| 2026-04-29 19:29 | 41.90747 | 0.13413 | 36938 ft | 420 kts | 189° |
| 2026-04-29 19:30 | 41.84931 | 0.12540 | 36938 ft | 421 kts | 189° |
| 2026-04-29 19:30 | 41.79106 | 0.11664 | 36944 ft | 421 kts | 189° |
| 2026-04-29 19:31 | 41.73284 | 0.10790 | 36934 ft | 421 kts | 189° |
| 2026-04-29 19:31 | 41.67449 | 0.09927 | 36936 ft | 422 kts | 189° |
| 2026-04-29 19:32 | 41.61610 | 0.09065 | 36938 ft | 422 kts | 189° |
| 2026-04-29 19:32 | 41.55771 | 0.08198 | 36929 ft | 422 kts | 189° |
| 2026-04-29 19:33 | 41.49925 | 0.07330 | 36931 ft | 422 kts | 189° |
| 2026-04-29 19:33 | 41.44083 | 0.06473 | 36931 ft | 423 kts | 189° |
| 2026-04-29 19:34 | 41.38235 | 0.05610 | 36932 ft | 423 kts | 189° |
| 2026-04-29 19:34 | 41.32380 | 0.04746 | 36917 ft | 423 kts | 190° |
| 2026-04-29 19:35 | 41.26528 | 0.03891 | 36921 ft | 423 kts | 190° |
| 2026-04-29 19:35 | 41.20668 | 0.03042 | 36932 ft | 423 kts | 190° |
| 2026-04-29 19:36 | 41.14817 | 0.02185 | 36930 ft | 423 kts | 190° |
| 2026-04-29 19:36 | 41.08953 | 0.01321 | 36932 ft | 424 kts | 190° |
| 2026-04-29 19:37 | 41.03088 | 0.00463 | 36935 ft | 424 kts | 190° |
| 2026-04-29 19:37 | 40.97220 | -0.00391 | 36951 ft | 424 kts | 190° |
| 2026-04-29 19:38 | 40.91353 | -0.01242 | 36958 ft | 424 kts | 190° |
| 2026-04-29 19:38 | 40.85494 | -0.02088 | 36935 ft | 424 kts | 191° |
| 2026-04-29 19:39 | 40.79632 | -0.02942 | 36939 ft | 424 kts | 191° |
| 2026-04-29 19:39 | 40.73766 | -0.03793 | 36951 ft | 424 kts | 191° |
| 2026-04-29 19:40 | 40.68893 | -0.04493 | 36951 ft | 423 kts | 191° |
| 2026-04-29 19:40 | 40.63036 | -0.05334 | 36963 ft | 423 kts | 191° |
| 2026-04-29 19:41 | 40.57177 | -0.06184 | 36950 ft | 423 kts | 192° |
| 2026-04-29 19:41 | 40.51541 | -0.08076 | 36944 ft | 417 kts | 201° |
| 2026-04-29 19:42 | 40.45988 | -0.10290 | 36921 ft | 417 kts | 201° |
| 2026-04-29 19:42 | 40.40434 | -0.12483 | 36914 ft | 417 kts | 201° |
| 2026-04-29 19:43 | 40.34840 | -0.14686 | 36911 ft | 417 kts | 201° |
| 2026-04-29 19:43 | 40.29283 | -0.16869 | 36910 ft | 417 kts | 201° |
| 2026-04-29 19:44 | 40.23728 | -0.19054 | 36898 ft | 416 kts | 201° |
| 2026-04-29 19:44 | 40.22896 | -0.19382 | 36900 ft | 416 kts | 201° |
| 2026-04-29 19:46 | 40.18478 | -0.21125 | 36917 ft | 416 kts | 201° |
| 2026-04-29 19:46 | 40.17495 | -0.21513 | 36920 ft | 416 kts | 201° |
| 2026-04-29 19:47 | 40.16428 | -0.21934 | 36924 ft | 416 kts | 201° |
| 2026-04-29 19:47 | 40.10877 | -0.24113 | 36937 ft | 417 kts | 201° |
| 2026-04-29 19:48 | 40.09443 | -0.24672 | 36941 ft | 416 kts | 201° |
| 2026-04-29 19:49 | 40.04395 | -0.26638 | 36833 ft | 417 kts | 201° |
| 2026-04-29 19:49 | 40.01583 | -0.27739 | 36545 ft | 416 kts | 201° |
| 2026-04-29 19:49 | 39.98843 | -0.28814 | 36291 ft | 417 kts | 201° |
| 2026-04-29 19:49 | 39.96061 | -0.29904 | 36035 ft | 417 kts | 201° |
| 2026-04-29 19:50 | 39.93275 | -0.30991 | 35778 ft | 418 kts | 201° |
| 2026-04-29 19:50 | 39.90487 | -0.32076 | 35524 ft | 419 kts | 201° |
| 2026-04-29 19:50 | 39.87697 | -0.33159 | 35278 ft | 419 kts | 201° |
| 2026-04-29 19:50 | 39.84901 | -0.34242 | 35027 ft | 419 kts | 201° |
| 2026-04-29 19:51 | 39.82067 | -0.35343 | 34681 ft | 420 kts | 201° |
| 2026-04-29 19:51 | 39.79264 | -0.36435 | 34087 ft | 419 kts | 202° |
| 2026-04-29 19:51 | 39.76520 | -0.37501 | 33592 ft | 415 kts | 202° |
| 2026-04-29 19:51 | 39.73725 | -0.38584 | 33076 ft | 412 kts | 202° |
| 2026-04-29 19:52 | 39.71031 | -0.39627 | 32580 ft | 408 kts | 201° |
| 2026-04-29 19:52 | 39.68317 | -0.40675 | 32086 ft | 405 kts | 201° |
| 2026-04-29 19:52 | 39.65626 | -0.41712 | 31571 ft | 402 kts | 201° |
| 2026-04-29 19:52 | 39.62950 | -0.42746 | 31070 ft | 400 kts | 201° |
| 2026-04-29 19:53 | 39.60253 | -0.43789 | 30566 ft | 397 kts | 201° |
| 2026-04-29 19:53 | 39.57611 | -0.44809 | 30058 ft | 395 kts | 201° |
| 2026-04-29 19:53 | 39.54981 | -0.45824 | 29534 ft | 393 kts | 201° |
| 2026-04-29 19:53 | 39.52375 | -0.46826 | 29062 ft | 389 kts | 201° |
| 2026-04-29 19:54 | 39.47254 | -0.48789 | 28140 ft | 383 kts | 200° |
| 2026-04-29 19:54 | 39.44700 | -0.49725 | 27698 ft | 381 kts | 199° |
| 2026-04-29 19:54 | 39.42149 | -0.50631 | 27231 ft | 379 kts | 199° |
| 2026-04-29 19:55 | 39.39609 | -0.51519 | 26812 ft | 377 kts | 199° |
| 2026-04-29 19:55 | 39.37076 | -0.52406 | 26379 ft | 376 kts | 199° |
| 2026-04-29 19:55 | 39.34558 | -0.53293 | 25943 ft | 375 kts | 199° |
| 2026-04-29 19:55 | 39.32048 | -0.54183 | 25527 ft | 373 kts | 199° |
| 2026-04-29 19:56 | 39.29547 | -0.55077 | 25088 ft | 373 kts | 199° |
| 2026-04-29 19:56 | 39.27047 | -0.55973 | 24650 ft | 372 kts | 199° |
| 2026-04-29 19:56 | 39.24552 | -0.56864 | 24204 ft | 372 kts | 198° |
| 2026-04-29 19:56 | 39.22057 | -0.57752 | 23753 ft | 372 kts | 198° |
| 2026-04-29 19:57 | 39.19563 | -0.58638 | 23252 ft | 372 kts | 198° |
| 2026-04-29 19:57 | 39.17877 | -0.59235 | 22916 ft | 370 kts | 198° |
| 2026-04-29 19:57 | 39.14602 | -0.60390 | 22286 ft | 367 kts | 198° |
| 2026-04-29 19:57 | 39.12143 | -0.61257 | 21820 ft | 365 kts | 198° |
| 2026-04-29 19:58 | 39.09702 | -0.62119 | 21335 ft | 363 kts | 198° |
| 2026-04-29 19:58 | 39.07275 | -0.62976 | 20857 ft | 361 kts | 198° |
| 2026-04-29 19:58 | 39.04861 | -0.63828 | 20377 ft | 359 kts | 198° |
| 2026-04-29 19:58 | 39.02463 | -0.64676 | 19885 ft | 356 kts | 198° |
| 2026-04-29 19:59 | 39.00075 | -0.65521 | 19406 ft | 354 kts | 198° |
| 2026-04-29 19:59 | 38.97703 | -0.66358 | 18930 ft | 352 kts | 198° |
| 2026-04-29 19:59 | 38.95347 | -0.67187 | 18452 ft | 351 kts | 198° |
| 2026-04-29 19:59 | 38.92998 | -0.68014 | 17942 ft | 349 kts | 198° |
| 2026-04-29 20:00 | 38.90665 | -0.68834 | 17452 ft | 346 kts | 198° |
| 2026-04-29 20:00 | 38.88355 | -0.69645 | 16980 ft | 342 kts | 198° |
| 2026-04-29 20:00 | 38.86070 | -0.70445 | 16525 ft | 339 kts | 198° |
| 2026-04-29 20:00 | 38.83803 | -0.71239 | 16064 ft | 337 kts | 198° |
| 2026-04-29 20:01 | 38.81549 | -0.72029 | 15604 ft | 334 kts | 198° |
| 2026-04-29 20:01 | 38.79312 | -0.72814 | 15158 ft | 332 kts | 198° |
| 2026-04-29 20:01 | 38.77089 | -0.73596 | 14693 ft | 330 kts | 198° |
| 2026-04-29 20:01 | 38.74883 | -0.74370 | 14250 ft | 328 kts | 198° |
| 2026-04-29 20:02 | 38.72691 | -0.75137 | 13805 ft | 326 kts | 198° |
| 2026-04-29 20:02 | 38.70510 | -0.75898 | 13319 ft | 324 kts | 198° |
| 2026-04-29 20:02 | 38.68344 | -0.76656 | 12895 ft | 321 kts | 198° |
| 2026-04-29 20:02 | 38.66923 | -0.77154 | 12602 ft | 319 kts | 198° |
| 2026-04-29 20:03 | 38.64077 | -0.78148 | 12021 ft | 315 kts | 197° |
| 2026-04-29 20:03 | 38.61974 | -0.78878 | 11591 ft | 312 kts | 197° |
| 2026-04-29 20:03 | 38.59903 | -0.79596 | 11403 ft | 303 kts | 197° |
| 2026-04-29 20:03 | 38.57905 | -0.80289 | 11276 ft | 292 kts | 197° |
| 2026-04-29 20:04 | 38.55983 | -0.80957 | 11152 ft | 282 kts | 197° |
| 2026-04-29 20:04 | 38.54210 | -0.81872 | 11032 ft | 270 kts | 214° |
| 2026-04-29 20:04 | 38.52851 | -0.83435 | 10904 ft | 259 kts | 231° |
| 2026-04-29 20:04 | 38.51719 | -0.85168 | 10652 ft | 249 kts | 228° |
| 2026-04-29 20:05 | 38.50545 | -0.86770 | 10186 ft | 246 kts | 225° |
| 2026-04-29 20:05 | 38.49315 | -0.88273 | 9717 ft | 243 kts | 222° |
| 2026-04-29 20:05 | 38.48035 | -0.89686 | 9333 ft | 244 kts | 219° |
| 2026-04-29 20:05 | 38.46690 | -0.91030 | 8981 ft | 246 kts | 217° |
| 2026-04-29 20:06 | 38.45287 | -0.92283 | 8643 ft | 247 kts | 214° |
| 2026-04-29 20:06 | 38.43838 | -0.93446 | 8327 ft | 247 kts | 211° |
| 2026-04-29 20:06 | 38.42365 | -0.94497 | 8092 ft | 244 kts | 208° |
| 2026-04-29 20:06 | 38.40837 | -0.95454 | 7752 ft | 245 kts | 205° |
| 2026-04-29 20:07 | 38.39266 | -0.96311 | 7388 ft | 246 kts | 202° |
| 2026-04-29 20:07 | 38.37673 | -0.97080 | 7114 ft | 245 kts | 201° |
| 2026-04-29 20:07 | 38.36021 | -0.97698 | 6713 ft | 250 kts | 182° |
| 2026-04-29 20:07 | 38.34375 | -0.97138 | 6400 ft | 249 kts | 144° |
| 2026-04-29 20:08 | 38.33337 | -0.95431 | 6135 ft | 245 kts | 112° |
| 2026-04-29 20:08 | 38.32999 | -0.94036 | 5934 ft | 244 kts | 102° |
| 2026-04-29 20:08 | 38.32683 | -0.91207 | 5486 ft | 244 kts | 95° |
| 2026-04-29 20:08 | 38.32517 | -0.89077 | 5143 ft | 236 kts | 95° |
| 2026-04-29 20:09 | 38.32341 | -0.87045 | 4830 ft | 224 kts | 96° |
| 2026-04-29 20:09 | 38.32162 | -0.85115 | 4460 ft | 216 kts | 95° |
| 2026-04-29 20:09 | 38.31983 | -0.83254 | 4137 ft | 206 kts | 98° |
| 2026-04-29 20:09 | 38.31764 | -0.81510 | 3862 ft | 193 kts | 99° |
| 2026-04-29 20:10 | 38.31542 | -0.79870 | 3594 ft | 183 kts | 100° |
| 2026-04-29 20:10 | 38.31330 | -0.78324 | 3362 ft | 172 kts | 100° |
| 2026-04-29 20:10 | 38.31129 | -0.76862 | 3142 ft | 163 kts | 100° |
| 2026-04-29 20:10 | 38.30941 | -0.75489 | 2932 ft | 153 kts | 98° |
| 2026-04-29 20:11 | 38.30769 | -0.74176 | 2730 ft | 149 kts | 97° |
| 2026-04-29 20:11 | 38.30571 | -0.72896 | 2482 ft | 146 kts | 101° |
| 2026-04-29 20:11 | 38.30357 | -0.71642 | 2298 ft | 145 kts | 101° |
| 2026-04-29 20:11 | 38.30147 | -0.70398 | 2087 ft | 143 kts | 99° |
| 2026-04-29 20:12 | 38.30000 | -0.69150 | 1883 ft | 142 kts | 97° |
| 2026-04-29 20:12 | 38.29876 | -0.67903 | 1769 ft | 141 kts | 97° |
| 2026-04-29 20:12 | 38.29729 | -0.66668 | 1646 ft | 142 kts | 100° |
| 2026-04-29 20:12 | 38.29522 | -0.65451 | 1418 ft | 139 kts | 103° |
| 2026-04-29 20:13 | 38.29352 | -0.64239 | 1174 ft | 138 kts | 96° |
| 2026-04-29 20:13 | 38.29292 | -0.63411 | 1111 ft | 140 kts | 97° |
| 2026-04-29 20:13 | 38.29050 | -0.61782 | 859 ft | 140 kts | 103° |
| 2026-04-29 20:13 | 38.28869 | -0.60566 | 674 ft | 140 kts | 100° |
| 2026-04-29 20:14 | 38.28756 | -0.59763 | 532 ft | 140 kts | 100° |
| 2026-04-29 20:14 | 38.28600 | -0.58548 | 353 ft | 138 kts | 100° |
| 2026-04-29 20:14 | 38.28428 | -0.57338 | 168 ft | 137 kts | 101° |
| 2026-04-29 20:14 | 38.28274 | -0.56246 | 114 ft | 100 kts | 99° |
| 2026-04-29 20:15 | 38.28194 | -0.55680 | 99 ft | 49 kts | 101° |
| 2026-04-29 20:15 | 38.28136 | -0.55297 | 88 ft | 40 kts | 100° |
| 2026-04-29 20:15 | 38.28121 | -0.55089 | 84 ft | 3 kts | 82° |
| 2026-04-29 20:15 | 38.28129 | -0.55015 | 82 ft | 14 kts | 84° |
| 2026-04-29 20:16 | 38.28147 | -0.54856 | 73 ft | 22 kts | 76° |
| 2026-04-29 20:16 | 38.28193 | -0.54724 | 65 ft | 9 kts | 52° |
| 2026-04-29 20:16 | 38.28245 | -0.54748 | 69 ft | 10 kts | 292° |
| 2026-04-29 20:16 | 38.28256 | -0.54830 | 70 ft | 9 kts | 276° |
| 2026-04-29 20:17 | 38.28264 | -0.54906 | 75 ft | 8 kts | 282° |
| 2026-04-29 20:17 | 38.28276 | -0.54976 | 76 ft | 8 kts | 282° |
| 2026-04-29 20:17 | 38.28287 | -0.55039 | 83 ft | 7 kts | 281° |
| 2026-04-29 20:17 | 38.28295 | -0.55093 | 82 ft | 6 kts | 280° |
| 2026-04-29 20:18 | 38.28301 | -0.55139 | 86 ft | 5 kts | 279° |
| 2026-04-29 20:18 | 38.28309 | -0.55183 | 85 ft | 6 kts | 293° |
| 2026-04-29 20:18 | 38.28349 | -0.55203 | 88 ft | 8 kts | 15° |
| 2026-04-29 20:18 | 38.28393 | -0.55144 | 88 ft | 11 kts | 52° |
| 2026-04-29 20:19 | 38.28421 | -0.55047 | 88 ft | 13 kts | 90° |
| 2026-04-29 20:19 | 38.28483 | -0.54976 | 89 ft | 16 kts | 7° |
| 2026-04-29 20:19 | 38.28575 | -0.54956 | 89 ft | 10 kts | 11° |
| 2026-04-29 20:19 | 38.28597 | -0.54964 | 91 ft | 4 kts | 310° |
| 2026-04-29 20:20 | 38.28606 | -0.55006 | 89 ft | 6 kts | 281° |
| 2026-04-29 20:20 | 38.28610 | -0.55037 | 87 ft | 0 kts | 278° |